Naruna, Virginia
Current Conditions -  °F | °C
As of 3:35 PM on Friday 28 Nov 2014 (Local Time) from K0V4 Reporting Station
Clear Clear  
Wind Chill: 35°   Ceiling: Unl
Heat Index: 41°   Visibility: 10mi
Dew Point: 21°   Wind: 8mph
Humidity: 46%   Direction: 270°W
Pressure: 30.28"   Gusts: NA
Location:  37.11°N, 79°W
Report Text: K0V4 282035Z AUTO 27007KT 10SM CLR 05/M06 A3028 RMK AO1 T00481059
Loading
Personal Weather Stations






























Interactive Weather Map New forecast layout! Learn more

10-Day Weather Forecast

Advertisements
Track Severe Weather on mobile